sensor_id;sensor_type;location;lat;lon;timestamp;temperature;humidity
2999;DHT22;1509;51.964;7.628;2023-04-15T00:00:48;9.30;99.90
2999;DHT22;1509;51.964;7.628;2023-04-15T00:03:16;9.30;99.90
2999;DHT22;1509;51.964;7.628;2023-04-15T00:05:41;9.30;99.90
2999;DHT22;1509;51.964;7.628;2023-04-15T00:08:07;9.30;99.90
2999;DHT22;1509;51.964;7.628;2023-04-15T00:10:33;9.20;99.90
2999;DHT22;1509;51.964;7.628;2023-04-15T00:12:59;9.20;99.90
2999;DHT22;1509;51.964;7.628;2023-04-15T00:15:25;9.20;99.90
2999;DHT22;1509;51.964;7.628;2023-04-15T00:17:51;9.20;99.90
2999;DHT22;1509;51.964;7.628;2023-04-15T00:20:17;9.10;99.90
2999;DHT22;1509;51.964;7.628;2023-04-15T00:22:43;9.10;99.90
2999;DHT22;1509;51.964;7.628;2023-04-15T00:25:08;9.00;99.90
2999;DHT22;1509;51.964;7.628;2023-04-15T00:27:34;9.00;99.90
2999;DHT22;1509;51.964;7.628;2023-04-15T00:30:00;9.00;99.90
2999;DHT22;1509;51.964;7.628;2023-04-15T00:32:25;8.90;99.90
2999;DHT22;1509;51.964;7.628;2023-04-15T00:34:51;8.80;99.90
2999;DHT22;1509;51.964;7.628;2023-04-15T00:37:16;8.80;99.90
2999;DHT22;1509;51.964;7.628;2023-04-15T00:39:42;8.80;99.90
2999;DHT22;1509;51.964;7.628;2023-04-15T00:42:09;8.80;99.90
2999;DHT22;1509;51.964;7.628;2023-04-15T00:44:35;8.70;99.90
2999;DHT22;1509;51.964;7.628;2023-04-15T00:47:00;8.70;99.90
2999;DHT22;1509;51.964;7.628;2023-04-15T00:49:28;8.70;99.90
2999;DHT22;1509;51.964;7.628;2023-04-15T00:51:53;8.70;99.90
2999;DHT22;1509;51.964;7.628;2023-04-15T00:54:20;8.70;99.90
2999;DHT22;1509;51.964;7.628;2023-04-15T00:56:46;8.60;99.90
2999;DHT22;1509;51.964;7.628;2023-04-15T00:59:12;8.60;99.90
2999;DHT22;1509;51.964;7.628;2023-04-15T01:01:38;8.60;99.90
2999;DHT22;1509;51.964;7.628;2023-04-15T01:04:03;8.60;99.90
2999;DHT22;1509;51.964;7.628;2023-04-15T01:06:30;8.50;99.90
2999;DHT22;1509;51.964;7.628;2023-04-15T01:08:57;8.40;99.90
2999;DHT22;1509;51.964;7.628;2023-04-15T01:11:23;8.40;99.90
2999;DHT22;1509;51.964;7.628;2023-04-15T01:13:50;8.30;99.90
2999;DHT22;1509;51.964;7.628;2023-04-15T01:16:17;8.30;99.90
2999;DHT22;1509;51.964;7.628;2023-04-15T01:18:43;8.30;99.90
2999;DHT22;1509;51.964;7.628;2023-04-15T01:21:08;8.30;99.90
2999;DHT22;1509;51.964;7.628;2023-04-15T01:23:35;8.30;99.90
2999;DHT22;1509;51.964;7.628;2023-04-15T01:26:03;8.20;99.90
2999;DHT22;1509;51.964;7.628;2023-04-15T01:28:30;8.20;99.90
2999;DHT22;1509;51.964;7.628;2023-04-15T01:31:13;8.20;99.90
2999;DHT22;1509;51.964;7.628;2023-04-15T01:33:40;8.20;99.90
2999;DHT22;1509;51.964;7.628;2023-04-15T01:36:07;8.20;99.90
2999;DHT22;1509;51.964;7.628;2023-04-15T01:38:34;8.10;99.90
2999;DHT22;1509;51.964;7.628;2023-04-15T01:41:00;8.00;99.90
2999;DHT22;1509;51.964;7.628;2023-04-15T01:43:26;8.00;99.90
2999;DHT22;1509;51.964;7.628;2023-04-15T01:45:53;7.90;99.90
2999;DHT22;1509;51.964;7.628;2023-04-15T01:48:18;7.90;99.90
2999;DHT22;1509;51.964;7.628;2023-04-15T01:50:44;7.90;99.90
2999;DHT22;1509;51.964;7.628;2023-04-15T01:53:10;7.90;99.90
2999;DHT22;1509;51.964;7.628;2023-04-15T01:55:35;7.90;99.90
2999;DHT22;1509;51.964;7.628;2023-04-15T01:58:02;7.90;99.90
2999;DHT22;1509;51.964;7.628;2023-04-15T02:00:28;7.90;99.90
2999;DHT22;1509;51.964;7.628;2023-04-15T02:02:54;7.90;99.90
2999;DHT22;1509;51.964;7.628;2023-04-15T02:05:20;7.80;99.90
2999;DHT22;1509;51.964;7.628;2023-04-15T02:07:45;7.80;99.90
2999;DHT22;1509;51.964;7.628;2023-04-15T02:10:11;7.80;99.90
2999;DHT22;1509;51.964;7.628;2023-04-15T02:12:38;7.70;99.90
2999;DHT22;1509;51.964;7.628;2023-04-15T02:15:04;7.70;99.90
2999;DHT22;1509;51.964;7.628;2023-04-15T02:17:32;7.70;99.90
2999;DHT22;1509;51.964;7.628;2023-04-15T02:19:59;7.70;99.90
2999;DHT22;1509;51.964;7.628;2023-04-15T02:22:25;7.60;99.90
2999;DHT22;1509;51.964;7.628;2023-04-15T02:24:51;7.60;99.90
2999;DHT22;1509;51.964;7.628;2023-04-15T02:27:17;7.60;99.90
2999;DHT22;1509;51.964;7.628;2023-04-15T02:29:44;7.60;99.90
2999;DHT22;1509;51.964;7.628;2023-04-15T02:32:10;7.50;99.90
2999;DHT22;1509;51.964;7.628;2023-04-15T02:34:37;7.40;99.90
2999;DHT22;1509;51.964;7.628;2023-04-15T02:37:08;7.50;99.90
2999;DHT22;1509;51.964;7.628;2023-04-15T02:39:34;7.40;99.90
2999;DHT22;1509;51.964;7.628;2023-04-15T02:42:00;7.40;99.90
2999;DHT22;1509;51.964;7.628;2023-04-15T02:44:26;7.50;99.90
2999;DHT22;1509;51.964;7.628;2023-04-15T02:46:52;7.40;99.90
2999;DHT22;1509;51.964;7.628;2023-04-15T02:49:22;7.30;99.90
2999;DHT22;1509;51.964;7.628;2023-04-15T02:51:48;7.40;99.90
2999;DHT22;1509;51.964;7.628;2023-04-15T02:54:21;7.40;99.90
2999;DHT22;1509;51.964;7.628;2023-04-15T02:56:50;7.40;99.90
2999;DHT22;1509;51.964;7.628;2023-04-15T02:59:16;7.30;99.90
2999;DHT22;1509;51.964;7.628;2023-04-15T03:01:42;7.30;99.90
2999;DHT22;1509;51.964;7.628;2023-04-15T03:04:08;7.30;99.90
2999;DHT22;1509;51.964;7.628;2023-04-15T03:06:36;7.30;99.90
2999;DHT22;1509;51.964;7.628;2023-04-15T03:09:01;7.20;99.90
2999;DHT22;1509;51.964;7.628;2023-04-15T03:11:31;7.20;99.90
2999;DHT22;1509;51.964;7.628;2023-04-15T03:13:57;7.20;99.90
2999;DHT22;1509;51.964;7.628;2023-04-15T03:16:23;7.10;99.90
2999;DHT22;1509;51.964;7.628;2023-04-15T03:18:49;7.10;99.90
2999;DHT22;1509;51.964;7.628;2023-04-15T03:21:15;7.00;99.90
2999;DHT22;1509;51.964;7.628;2023-04-15T03:23:40;7.10;99.90
2999;DHT22;1509;51.964;7.628;2023-04-15T03:26:06;7.10;99.90
2999;DHT22;1509;51.964;7.628;2023-04-15T03:28:32;6.90;99.90
2999;DHT22;1509;51.964;7.628;2023-04-15T03:30:58;6.90;99.90
2999;DHT22;1509;51.964;7.628;2023-04-15T03:33:24;7.00;99.90
2999;DHT22;1509;51.964;7.628;2023-04-15T03:35:50;7.00;99.90
2999;DHT22;1509;51.964;7.628;2023-04-15T03:38:16;6.80;99.90
2999;DHT22;1509;51.964;7.628;2023-04-15T03:40:42;6.90;99.90
2999;DHT22;1509;51.964;7.628;2023-04-15T03:43:08;6.90;99.90
2999;DHT22;1509;51.964;7.628;2023-04-15T03:45:33;6.90;99.90
2999;DHT22;1509;51.964;7.628;2023-04-15T03:47:59;6.90;99.90
2999;DHT22;1509;51.964;7.628;2023-04-15T03:50:25;6.80;99.90
2999;DHT22;1509;51.964;7.628;2023-04-15T03:52:51;6.80;99.90
2999;DHT22;1509;51.964;7.628;2023-04-15T03:55:16;6.80;99.90
2999;DHT22;1509;51.964;7.628;2023-04-15T03:57:42;6.80;99.90
2999;DHT22;1509;51.964;7.628;2023-04-15T04:00:08;6.80;99.90
2999;DHT22;1509;51.964;7.628;2023-04-15T04:02:35;6.80;99.90
2999;DHT22;1509;51.964;7.628;2023-04-15T04:05:00;6.80;99.90
2999;DHT22;1509;51.964;7.628;2023-04-15T04:07:26;6.80;99.90
2999;DHT22;1509;51.964;7.628;2023-04-15T04:09:52;6.80;99.90
2999;DHT22;1509;51.964;7.628;2023-04-15T04:12:17;6.90;99.90
2999;DHT22;1509;51.964;7.628;2023-04-15T04:14:43;6.90;99.90
2999;DHT22;1509;51.964;7.628;2023-04-15T04:17:09;6.90;99.90
2999;DHT22;1509;51.964;7.628;2023-04-15T04:19:35;6.90;99.90
2999;DHT22;1509;51.964;7.628;2023-04-15T04:22:00;7.00;99.90
2999;DHT22;1509;51.964;7.628;2023-04-15T04:24:26;6.90;99.90
2999;DHT22;1509;51.964;7.628;2023-04-15T04:26:51;6.90;99.90
2999;DHT22;1509;51.964;7.628;2023-04-15T04:29:17;6.90;99.90
2999;DHT22;1509;51.964;7.628;2023-04-15T04:31:43;6.90;99.90
2999;DHT22;1509;51.964;7.628;2023-04-15T04:34:08;7.00;99.90
2999;DHT22;1509;51.964;7.628;2023-04-15T04:36:34;6.90;99.90
2999;DHT22;1509;51.964;7.628;2023-04-15T04:39:14;6.90;99.90
2999;DHT22;1509;51.964;7.628;2023-04-15T04:41:40;6.90;99.90
2999;DHT22;1509;51.964;7.628;2023-04-15T04:44:06;7.00;99.90
2999;DHT22;1509;51.964;7.628;2023-04-15T04:46:32;7.00;99.90
2999;DHT22;1509;51.964;7.628;2023-04-15T04:48:57;7.10;99.90
2999;DHT22;1509;51.964;7.628;2023-04-15T04:51:23;7.10;99.90
2999;DHT22;1509;51.964;7.628;2023-04-15T04:53:48;7.10;99.90
2999;DHT22;1509;51.964;7.628;2023-04-15T04:56:14;7.10;99.90
2999;DHT22;1509;51.964;7.628;2023-04-15T04:58:40;7.10;99.90
2999;DHT22;1509;51.964;7.628;2023-04-15T05:01:06;7.10;99.90
2999;DHT22;1509;51.964;7.628;2023-04-15T05:03:32;7.10;99.90
2999;DHT22;1509;51.964;7.628;2023-04-15T05:05:57;7.20;99.90
2999;DHT22;1509;51.964;7.628;2023-04-15T05:08:23;7.10;99.90
2999;DHT22;1509;51.964;7.628;2023-04-15T05:10:49;7.20;99.90
2999;DHT22;1509;51.964;7.628;2023-04-15T05:13:14;7.20;99.90
2999;DHT22;1509;51.964;7.628;2023-04-15T05:15:40;7.20;99.90
2999;DHT22;1509;51.964;7.628;2023-04-15T05:18:07;7.20;99.90
2999;DHT22;1509;51.964;7.628;2023-04-15T05:20:33;7.20;99.90
2999;DHT22;1509;51.964;7.628;2023-04-15T05:22:58;7.20;99.90
2999;DHT22;1509;51.964;7.628;2023-04-15T05:25:27;7.20;99.90
2999;DHT22;1509;51.964;7.628;2023-04-15T05:27:52;7.20;99.90
2999;DHT22;1509;51.964;7.628;2023-04-15T05:30:18;7.20;99.90
2999;DHT22;1509;51.964;7.628;2023-04-15T05:32:43;7.20;99.90
2999;DHT22;1509;51.964;7.628;2023-04-15T05:35:09;7.30;99.90
2999;DHT22;1509;51.964;7.628;2023-04-15T05:37:36;7.30;99.90
2999;DHT22;1509;51.964;7.628;2023-04-15T05:40:01;7.30;99.90
2999;DHT22;1509;51.964;7.628;2023-04-15T05:42:28;7.40;99.90
2999;DHT22;1509;51.964;7.628;2023-04-15T05:44:54;7.50;99.90
2999;DHT22;1509;51.964;7.628;2023-04-15T05:47:20;7.50;99.90
2999;DHT22;1509;51.964;7.628;2023-04-15T05:49:46;7.50;99.90
2999;DHT22;1509;51.964;7.628;2023-04-15T05:52:11;7.50;99.90
2999;DHT22;1509;51.964;7.628;2023-04-15T05:54:37;7.60;99.90
2999;DHT22;1509;51.964;7.628;2023-04-15T05:57:02;7.60;99.90
2999;DHT22;1509;51.964;7.628;2023-04-15T05:59:28;7.70;99.90
2999;DHT22;1509;51.964;7.628;2023-04-15T06:01:54;7.70;99.90
2999;DHT22;1509;51.964;7.628;2023-04-15T06:04:19;7.80;99.90
2999;DHT22;1509;51.964;7.628;2023-04-15T06:06:46;7.60;99.90
2999;DHT22;1509;51.964;7.628;2023-04-15T06:09:11;7.70;99.90
2999;DHT22;1509;51.964;7.628;2023-04-15T06:11:37;7.70;99.90
2999;DHT22;1509;51.964;7.628;2023-04-15T06:14:02;7.80;99.90
2999;DHT22;1509;51.964;7.628;2023-04-15T06:16:28;7.70;99.90
2999;DHT22;1509;51.964;7.628;2023-04-15T06:18:53;7.70;99.90
2999;DHT22;1509;51.964;7.628;2023-04-15T06:21:19;7.80;99.90
2999;DHT22;1509;51.964;7.628;2023-04-15T06:23:45;7.80;99.90
2999;DHT22;1509;51.964;7.628;2023-04-15T06:26:10;7.80;99.90
2999;DHT22;1509;51.964;7.628;2023-04-15T06:28:36;7.70;99.90
2999;DHT22;1509;51.964;7.628;2023-04-15T06:31:02;7.90;99.90
2999;DHT22;1509;51.964;7.628;2023-04-15T06:33:31;8.00;99.90
2999;DHT22;1509;51.964;7.628;2023-04-15T06:35:56;8.10;99.90
2999;DHT22;1509;51.964;7.628;2023-04-15T06:38:22;8.10;99.90
2999;DHT22;1509;51.964;7.628;2023-04-15T06:40:47;8.10;99.90
2999;DHT22;1509;51.964;7.628;2023-04-15T06:43:13;8.10;99.90
2999;DHT22;1509;51.964;7.628;2023-04-15T06:45:39;8.30;99.90
2999;DHT22;1509;51.964;7.628;2023-04-15T06:48:07;8.20;99.90
2999;DHT22;1509;51.964;7.628;2023-04-15T06:50:33;8.10;99.90
2999;DHT22;1509;51.964;7.628;2023-04-15T06:53:00;8.10;99.90
2999;DHT22;1509;51.964;7.628;2023-04-15T06:55:25;8.10;99.90
2999;DHT22;1509;51.964;7.628;2023-04-15T06:57:51;8.20;99.90
2999;DHT22;1509;51.964;7.628;2023-04-15T07:00:17;8.20;99.90
2999;DHT22;1509;51.964;7.628;2023-04-15T07:02:43;8.20;99.90
2999;DHT22;1509;51.964;7.628;2023-04-15T07:05:09;8.40;99.90
2999;DHT22;1509;51.964;7.628;2023-04-15T07:07:35;8.30;99.90
2999;DHT22;1509;51.964;7.628;2023-04-15T07:10:04;8.20;99.90
2999;DHT22;1509;51.964;7.628;2023-04-15T07:12:30;8.50;99.90
2999;DHT22;1509;51.964;7.628;2023-04-15T07:14:57;8.60;99.90
2999;DHT22;1509;51.964;7.628;2023-04-15T07:17:23;8.60;99.90
2999;DHT22;1509;51.964;7.628;2023-04-15T07:19:49;9.00;99.90
2999;DHT22;1509;51.964;7.628;2023-04-15T07:22:14;8.90;99.90
2999;DHT22;1509;51.964;7.628;2023-04-15T07:24:43;8.70;99.90
2999;DHT22;1509;51.964;7.628;2023-04-15T07:27:08;8.70;99.90
2999;DHT22;1509;51.964;7.628;2023-04-15T07:29:34;8.90;99.90
2999;DHT22;1509;51.964;7.628;2023-04-15T07:31:59;9.10;99.90
2999;DHT22;1509;51.964;7.628;2023-04-15T07:34:25;9.20;99.90
2999;DHT22;1509;51.964;7.628;2023-04-15T07:36:50;9.20;99.90
2999;DHT22;1509;51.964;7.628;2023-04-15T07:39:17;9.20;99.90
2999;DHT22;1509;51.964;7.628;2023-04-15T07:41:43;9.10;99.90
2999;DHT22;1509;51.964;7.628;2023-04-15T07:44:09;9.00;99.90
2999;DHT22;1509;51.964;7.628;2023-04-15T07:46:34;9.00;99.90
2999;DHT22;1509;51.964;7.628;2023-04-15T07:49:00;9.00;99.90
2999;DHT22;1509;51.964;7.628;2023-04-15T07:51:25;9.10;99.90
2999;DHT22;1509;51.964;7.628;2023-04-15T07:53:54;9.10;99.90
2999;DHT22;1509;51.964;7.628;2023-04-15T07:56:20;9.30;99.90
2999;DHT22;1509;51.964;7.628;2023-04-15T07:58:49;9.60;99.90
2999;DHT22;1509;51.964;7.628;2023-04-15T08:01:15;9.80;99.90
2999;DHT22;1509;51.964;7.628;2023-04-15T08:03:40;9.90;99.90
2999;DHT22;1509;51.964;7.628;2023-04-15T08:06:07;10.00;99.90
2999;DHT22;1509;51.964;7.628;2023-04-15T08:08:32;10.00;99.90
2999;DHT22;1509;51.964;7.628;2023-04-15T08:10:58;10.00;99.90
2999;DHT22;1509;51.964;7.628;2023-04-15T08:13:25;9.80;99.90
2999;DHT22;1509;51.964;7.628;2023-04-15T08:18:40;9.50;99.90
2999;DHT22;1509;51.964;7.628;2023-04-15T08:21:06;9.40;99.90
2999;DHT22;1509;51.964;7.628;2023-04-15T08:23:31;9.30;99.90
2999;DHT22;1509;51.964;7.628;2023-04-15T08:25:58;9.20;99.90
2999;DHT22;1509;51.964;7.628;2023-04-15T08:28:23;9.20;99.90
2999;DHT22;1509;51.964;7.628;2023-04-15T08:30:49;9.20;99.90
2999;DHT22;1509;51.964;7.628;2023-04-15T08:33:14;9.20;99.90
2999;DHT22;1509;51.964;7.628;2023-04-15T08:35:40;9.20;99.90
2999;DHT22;1509;51.964;7.628;2023-04-15T08:38:06;9.30;99.90
2999;DHT22;1509;51.964;7.628;2023-04-15T08:40:40;9.30;99.90
2999;DHT22;1509;51.964;7.628;2023-04-15T08:43:09;9.20;99.90
2999;DHT22;1509;51.964;7.628;2023-04-15T08:45:37;9.20;99.90
2999;DHT22;1509;51.964;7.628;2023-04-15T08:48:04;9.10;99.90
2999;DHT22;1509;51.964;7.628;2023-04-15T08:50:31;9.20;99.90
2999;DHT22;1509;51.964;7.628;2023-04-15T08:53:00;9.20;99.90
2999;DHT22;1509;51.964;7.628;2023-04-15T08:55:29;9.20;99.90
2999;DHT22;1509;51.964;7.628;2023-04-15T08:57:58;9.40;99.90
2999;DHT22;1509;51.964;7.628;2023-04-15T09:00:28;9.40;99.90
2999;DHT22;1509;51.964;7.628;2023-04-15T09:02:55;9.50;99.90
2999;DHT22;1509;51.964;7.628;2023-04-15T09:05:21;9.50;99.90
2999;DHT22;1509;51.964;7.628;2023-04-15T09:07:49;9.60;99.90
2999;DHT22;1509;51.964;7.628;2023-04-15T09:10:14;9.70;99.90
2999;DHT22;1509;51.964;7.628;2023-04-15T09:12:40;9.80;99.90
2999;DHT22;1509;51.964;7.628;2023-04-15T09:15:07;10.00;99.90
2999;DHT22;1509;51.964;7.628;2023-04-15T09:17:42;10.00;99.90
2999;DHT22;1509;51.964;7.628;2023-04-15T09:20:13;10.20;99.90
2999;DHT22;1509;51.964;7.628;2023-04-15T09:22:39;10.20;99.90
2999;DHT22;1509;51.964;7.628;2023-04-15T09:25:27;10.10;99.90
2999;DHT22;1509;51.964;7.628;2023-04-15T09:27:55;10.00;99.90
2999;DHT22;1509;51.964;7.628;2023-04-15T09:30:22;9.90;99.90
2999;DHT22;1509;51.964;7.628;2023-04-15T09:32:55;10.10;99.90
2999;DHT22;1509;51.964;7.628;2023-04-15T09:35:25;10.10;99.90
2999;DHT22;1509;51.964;7.628;2023-04-15T09:37:52;10.00;99.90
2999;DHT22;1509;51.964;7.628;2023-04-15T09:40:39;9.90;99.90
2999;DHT22;1509;51.964;7.628;2023-04-15T09:43:07;9.90;99.90
2999;DHT22;1509;51.964;7.628;2023-04-15T09:45:33;9.80;99.90
2999;DHT22;1509;51.964;7.628;2023-04-15T09:48:15;9.90;99.90
2999;DHT22;1509;51.964;7.628;2023-04-15T09:50:41;10.00;99.90
2999;DHT22;1509;51.964;7.628;2023-04-15T09:53:17;9.90;99.90
2999;DHT22;1509;51.964;7.628;2023-04-15T09:55:52;9.80;99.90
2999;DHT22;1509;51.964;7.628;2023-04-15T09:58:24;9.80;99.90
2999;DHT22;1509;51.964;7.628;2023-04-15T10:00:51;9.70;99.90
2999;DHT22;1509;51.964;7.628;2023-04-15T10:03:30;9.70;99.90
2999;DHT22;1509;51.964;7.628;2023-04-15T10:06:01;9.80;99.90
2999;DHT22;1509;51.964;7.628;2023-04-15T10:08:33;9.90;99.90
2999;DHT22;1509;51.964;7.628;2023-04-15T10:11:02;9.80;99.90
2999;DHT22;1509;51.964;7.628;2023-04-15T10:13:29;9.90;99.90
2999;DHT22;1509;51.964;7.628;2023-04-15T10:16:18;9.90;99.90
2999;DHT22;1509;51.964;7.628;2023-04-15T10:18:47;9.80;99.90
2999;DHT22;1509;51.964;7.628;2023-04-15T10:21:16;9.80;99.90
2999;DHT22;1509;51.964;7.628;2023-04-15T10:23:46;9.80;99.90
2999;DHT22;1509;51.964;7.628;2023-04-15T10:26:12;9.80;99.90
2999;DHT22;1509;51.964;7.628;2023-04-15T10:28:42;9.90;99.90
2999;DHT22;1509;51.964;7.628;2023-04-15T10:31:08;9.90;99.90
2999;DHT22;1509;51.964;7.628;2023-04-15T10:33:36;9.90;99.90
2999;DHT22;1509;51.964;7.628;2023-04-15T10:36:03;10.00;99.90
2999;DHT22;1509;51.964;7.628;2023-04-15T10:38:33;9.90;99.90
2999;DHT22;1509;51.964;7.628;2023-04-15T10:41:26;10.00;99.90
2999;DHT22;1509;51.964;7.628;2023-04-15T10:43:56;9.90;99.90
2999;DHT22;1509;51.964;7.628;2023-04-15T10:46:42;10.00;99.90
2999;DHT22;1509;51.964;7.628;2023-04-15T10:49:10;10.10;99.90
2999;DHT22;1509;51.964;7.628;2023-04-15T10:51:43;9.90;99.90
2999;DHT22;1509;51.964;7.628;2023-04-15T10:54:14;10.10;99.90
2999;DHT22;1509;51.964;7.628;2023-04-15T10:56:50;10.00;99.90
2999;DHT22;1509;51.964;7.628;2023-04-15T10:59:16;10.00;99.90
2999;DHT22;1509;51.964;7.628;2023-04-15T11:01:55;10.20;99.90
2999;DHT22;1509;51.964;7.628;2023-04-15T11:07:31;10.50;99.90
2999;DHT22;1509;51.964;7.628;2023-04-15T11:09:57;10.30;99.90
2999;DHT22;1509;51.964;7.628;2023-04-15T11:12:33;10.20;99.90
2999;DHT22;1509;51.964;7.628;2023-04-15T11:17:49;10.20;99.90
2999;DHT22;1509;51.964;7.628;2023-04-15T11:20:16;10.30;99.90
2999;DHT22;1509;51.964;7.628;2023-04-15T11:22:51;10.40;99.90
2999;DHT22;1509;51.964;7.628;2023-04-15T11:25:31;10.40;99.90
2999;DHT22;1509;51.964;7.628;2023-04-15T11:27:59;10.50;99.90
2999;DHT22;1509;51.964;7.628;2023-04-15T11:30:29;10.20;99.90
2999;DHT22;1509;51.964;7.628;2023-04-15T11:33:04;10.40;99.90
2999;DHT22;1509;51.964;7.628;2023-04-15T11:35:31;10.50;99.90
2999;DHT22;1509;51.964;7.628;2023-04-15T11:37:57;10.50;99.90
2999;DHT22;1509;51.964;7.628;2023-04-15T11:40:27;10.30;99.90
2999;DHT22;1509;51.964;7.628;2023-04-15T11:43:23;10.30;99.90
2999;DHT22;1509;51.964;7.628;2023-04-15T11:48:18;10.10;99.90
2999;DHT22;1509;51.964;7.628;2023-04-15T11:50:44;10.10;99.90
2999;DHT22;1509;51.964;7.628;2023-04-15T11:53:11;10.30;99.90
2999;DHT22;1509;51.964;7.628;2023-04-15T11:55:46;10.30;99.90
2999;DHT22;1509;51.964;7.628;2023-04-15T11:58:17;10.30;99.90
2999;DHT22;1509;51.964;7.628;2023-04-15T12:00:57;10.30;99.90
2999;DHT22;1509;51.964;7.628;2023-04-15T12:03:28;10.30;99.90
2999;DHT22;1509;51.964;7.628;2023-04-15T12:06:42;10.30;99.90
2999;DHT22;1509;51.964;7.628;2023-04-15T12:11:33;10.30;99.90
2999;DHT22;1509;51.964;7.628;2023-04-15T12:14:07;10.40;99.90
2999;DHT22;1509;51.964;7.628;2023-04-15T12:16:40;10.30;99.90
2999;DHT22;1509;51.964;7.628;2023-04-15T12:19:10;10.40;99.90
2999;DHT22;1509;51.964;7.628;2023-04-15T12:21:38;10.40;99.90
2999;DHT22;1509;51.964;7.628;2023-04-15T12:24:06;10.20;99.90
2999;DHT22;1509;51.964;7.628;2023-04-15T12:26:37;10.30;99.90
2999;DHT22;1509;51.964;7.628;2023-04-15T12:29:07;10.30;99.90
2999;DHT22;1509;51.964;7.628;2023-04-15T12:31:34;10.30;99.90
2999;DHT22;1509;51.964;7.628;2023-04-15T12:34:01;10.20;99.90
2999;DHT22;1509;51.964;7.628;2023-04-15T12:36:28;10.30;99.90
2999;DHT22;1509;51.964;7.628;2023-04-15T12:38:56;10.20;99.90
2999;DHT22;1509;51.964;7.628;2023-04-15T12:41:22;10.30;99.90
2999;DHT22;1509;51.964;7.628;2023-04-15T12:43:49;10.40;99.90
2999;DHT22;1509;51.964;7.628;2023-04-15T12:46:14;10.50;99.90
2999;DHT22;1509;51.964;7.628;2023-04-15T12:48:40;10.50;99.90
2999;DHT22;1509;51.964;7.628;2023-04-15T12:51:06;10.60;99.90
2999;DHT22;1509;51.964;7.628;2023-04-15T12:53:31;10.60;99.90
2999;DHT22;1509;51.964;7.628;2023-04-15T12:55:57;10.50;99.90
2999;DHT22;1509;51.964;7.628;2023-04-15T12:58:23;10.70;99.90
2999;DHT22;1509;51.964;7.628;2023-04-15T13:00:49;10.70;99.90
2999;DHT22;1509;51.964;7.628;2023-04-15T13:03:14;10.50;99.90
2999;DHT22;1509;51.964;7.628;2023-04-15T13:05:41;10.50;99.90
2999;DHT22;1509;51.964;7.628;2023-04-15T13:08:07;10.20;99.90
2999;DHT22;1509;51.964;7.628;2023-04-15T13:10:34;10.20;99.90
2999;DHT22;1509;51.964;7.628;2023-04-15T13:13:01;10.20;99.90
2999;DHT22;1509;51.964;7.628;2023-04-15T13:15:27;10.20;99.90
2999;DHT22;1509;51.964;7.628;2023-04-15T13:17:53;10.10;99.90
2999;DHT22;1509;51.964;7.628;2023-04-15T13:20:18;10.00;99.90
2999;DHT22;1509;51.964;7.628;2023-04-15T13:22:44;10.00;99.90
2999;DHT22;1509;51.964;7.628;2023-04-15T13:25:10;10.00;99.90
2999;DHT22;1509;51.964;7.628;2023-04-15T13:27:36;9.90;99.90
2999;DHT22;1509;51.964;7.628;2023-04-15T13:30:02;10.00;99.90
2999;DHT22;1509;51.964;7.628;2023-04-15T13:32:27;9.90;99.90
2999;DHT22;1509;51.964;7.628;2023-04-15T13:34:53;9.80;99.90
2999;DHT22;1509;51.964;7.628;2023-04-15T13:37:25;9.80;99.90
2999;DHT22;1509;51.964;7.628;2023-04-15T13:39:51;9.70;99.90
2999;DHT22;1509;51.964;7.628;2023-04-15T13:42:16;9.70;99.90
2999;DHT22;1509;51.964;7.628;2023-04-15T13:44:42;9.80;99.90
2999;DHT22;1509;51.964;7.628;2023-04-15T13:47:07;9.80;99.90
2999;DHT22;1509;51.964;7.628;2023-04-15T13:49:33;9.70;99.90
2999;DHT22;1509;51.964;7.628;2023-04-15T13:52:02;9.60;99.90
2999;DHT22;1509;51.964;7.628;2023-04-15T13:54:27;9.70;99.90
2999;DHT22;1509;51.964;7.628;2023-04-15T13:56:53;9.70;99.90
2999;DHT22;1509;51.964;7.628;2023-04-15T13:59:20;9.70;99.90
2999;DHT22;1509;51.964;7.628;2023-04-15T14:01:46;9.60;99.90
2999;DHT22;1509;51.964;7.628;2023-04-15T14:04:12;9.70;99.90
2999;DHT22;1509;51.964;7.628;2023-04-15T14:06:38;9.70;99.90
2999;DHT22;1509;51.964;7.628;2023-04-15T14:09:03;9.70;99.90
2999;DHT22;1509;51.964;7.628;2023-04-15T14:11:29;9.60;99.90
2999;DHT22;1509;51.964;7.628;2023-04-15T14:13:54;9.60;99.90
2999;DHT22;1509;51.964;7.628;2023-04-15T14:16:20;9.50;99.90
2999;DHT22;1509;51.964;7.628;2023-04-15T14:18:46;9.40;99.90
2999;DHT22;1509;51.964;7.628;2023-04-15T14:21:11;9.40;99.90
2999;DHT22;1509;51.964;7.628;2023-04-15T14:23:37;9.30;99.90
2999;DHT22;1509;51.964;7.628;2023-04-15T14:26:03;9.20;99.90
2999;DHT22;1509;51.964;7.628;2023-04-15T14:28:28;9.30;99.90
2999;DHT22;1509;51.964;7.628;2023-04-15T14:30:54;9.20;99.90
2999;DHT22;1509;51.964;7.628;2023-04-15T14:33:20;9.30;99.90
2999;DHT22;1509;51.964;7.628;2023-04-15T14:35:45;9.20;99.90
2999;DHT22;1509;51.964;7.628;2023-04-15T14:38:11;9.10;99.90
2999;DHT22;1509;51.964;7.628;2023-04-15T14:40:37;9.10;99.90
2999;DHT22;1509;51.964;7.628;2023-04-15T14:43:02;9.10;99.90
2999;DHT22;1509;51.964;7.628;2023-04-15T14:45:29;9.00;99.90
2999;DHT22;1509;51.964;7.628;2023-04-15T14:47:55;9.10;99.90
2999;DHT22;1509;51.964;7.628;2023-04-15T14:50:21;9.20;99.90
2999;DHT22;1509;51.964;7.628;2023-04-15T14:52:46;9.10;99.90
2999;DHT22;1509;51.964;7.628;2023-04-15T14:55:12;9.00;99.90
2999;DHT22;1509;51.964;7.628;2023-04-15T14:57:41;9.00;99.90
2999;DHT22;1509;51.964;7.628;2023-04-15T15:00:09;9.10;99.90
2999;DHT22;1509;51.964;7.628;2023-04-15T15:02:37;9.00;99.90
2999;DHT22;1509;51.964;7.628;2023-04-15T15:05:03;8.90;99.90
2999;DHT22;1509;51.964;7.628;2023-04-15T15:07:29;8.90;99.90
2999;DHT22;1509;51.964;7.628;2023-04-15T15:09:55;8.90;99.90
2999;DHT22;1509;51.964;7.628;2023-04-15T15:12:21;9.00;99.90
2999;DHT22;1509;51.964;7.628;2023-04-15T15:14:49;8.90;99.90
2999;DHT22;1509;51.964;7.628;2023-04-15T15:17:15;8.90;99.90
2999;DHT22;1509;51.964;7.628;2023-04-15T15:19:41;9.00;99.90
2999;DHT22;1509;51.964;7.628;2023-04-15T15:22:06;8.90;99.90
2999;DHT22;1509;51.964;7.628;2023-04-15T15:24:32;8.90;99.90
2999;DHT22;1509;51.964;7.628;2023-04-15T15:26:57;8.90;99.90
2999;DHT22;1509;51.964;7.628;2023-04-15T15:29:23;9.00;99.90
2999;DHT22;1509;51.964;7.628;2023-04-15T15:31:51;8.90;99.90
2999;DHT22;1509;51.964;7.628;2023-04-15T15:34:16;9.00;99.90
2999;DHT22;1509;51.964;7.628;2023-04-15T15:36:42;8.90;99.90
2999;DHT22;1509;51.964;7.628;2023-04-15T15:39:08;8.90;99.90
2999;DHT22;1509;51.964;7.628;2023-04-15T15:41:34;8.70;99.90
2999;DHT22;1509;51.964;7.628;2023-04-15T15:44:00;8.80;99.90
2999;DHT22;1509;51.964;7.628;2023-04-15T15:46:28;8.80;99.90
2999;DHT22;1509;51.964;7.628;2023-04-15T15:48:56;8.80;99.90
2999;DHT22;1509;51.964;7.628;2023-04-15T15:51:22;8.80;99.90
2999;DHT22;1509;51.964;7.628;2023-04-15T15:53:48;8.70;99.90
2999;DHT22;1509;51.964;7.628;2023-04-15T15:56:13;8.80;99.90
2999;DHT22;1509;51.964;7.628;2023-04-15T15:58:40;8.80;99.90
2999;DHT22;1509;51.964;7.628;2023-04-15T16:01:05;8.80;99.90
2999;DHT22;1509;51.964;7.628;2023-04-15T16:03:31;8.80;99.90
2999;DHT22;1509;51.964;7.628;2023-04-15T16:05:59;8.80;99.90
2999;DHT22;1509;51.964;7.628;2023-04-15T16:08:25;8.70;99.90
2999;DHT22;1509;51.964;7.628;2023-04-15T16:10:51;8.80;99.90
2999;DHT22;1509;51.964;7.628;2023-04-15T16:13:16;8.80;99.90
2999;DHT22;1509;51.964;7.628;2023-04-15T16:15:42;8.90;99.90
2999;DHT22;1509;51.964;7.628;2023-04-15T16:18:07;8.80;99.90
2999;DHT22;1509;51.964;7.628;2023-04-15T16:20:33;8.80;99.90
2999;DHT22;1509;51.964;7.628;2023-04-15T16:22:59;8.70;99.90
2999;DHT22;1509;51.964;7.628;2023-04-15T16:25:28;8.80;99.90
2999;DHT22;1509;51.964;7.628;2023-04-15T16:27:54;8.70;99.90